Time;durP1;ratioP1;P1;durP2;ratioP2;P2;SDS_P1;SDS_P2;PMS_P1;PMS_P2;Temp;Humidity;BMP_temperature;BMP_pressure;BME280_temperature;BME280_humidity;BME280_pressure;Samples;Min_cycle;Max_cycle;Signal;HPM_P1;HPM_P2
2023/03/23 00:00:08;;;;;;;20.70;12.90;;;;;;;10.87;63.09;98570.87;223681;181;138702;-72
2023/03/23 00:05:36;;;;;;;20.60;12.70;;;;;;;10.80;63.04;98565.48;223690;182;137700;-73
2023/03/23 00:10:39;;;;;;;;;;;;;;;10.76;63.19;98565.06;223625;182;147450;-73
2023/03/23 00:15:42;;;;;;;24.40;12.40;;;;;;;10.69;63.28;98563.09;223758;181;138985;-73
2023/03/23 00:20:44;;;;;;;20.00;11.70;;;;;;;10.65;63.37;98563.48;223659;182;137013;-72
2023/03/23 00:25:49;;;;;;;21.10;11.70;;;;;;;10.65;63.38;98559.98;223730;181;147035;-72
2023/03/23 00:31:01;;;;;;;21.90;11.80;;;;;;;10.62;63.51;98562.33;223682;181;141106;-72
2023/03/23 00:36:05;;;;;;;22.00;11.10;;;;;;;10.63;63.53;98560.30;223645;181;137520;-73
2023/03/23 00:41:08;;;;;;;22.80;10.70;;;;;;;10.63;63.62;98556.91;223704;181;147481;-71
2023/03/23 00:46:10;;;;;;;36.60;12.30;;;;;;;10.71;63.49;98552.84;223644;181;138496;-72
2023/03/23 00:51:12;;;;;;;25.50;11.00;;;;;;;10.76;63.33;98548.95;223689;182;137792;-71
2023/03/23 00:56:15;;;;;;;16.60;10.30;;;;;;;10.77;63.23;98542.30;223620;182;147321;-70
2023/03/23 01:01:17;;;;;;;23.20;10.30;;;;;;;10.78;63.06;98542.21;223700;188;141303;-70
2023/03/23 01:06:21;;;;;;;20.70;9.50;;;;;;;10.75;63.01;98535.90;223694;181;137986;-72
2023/03/23 01:11:24;;;;;;;16.10;9.60;;;;;;;10.72;63.03;98536.65;223660;181;147769;-72
2023/03/23 01:16:27;;;;;;;13.50;8.80;;;;;;;10.66;63.10;98536.84;223631;182;139312;-72
2023/03/23 01:21:30;;;;;;;14.50;8.70;;;;;;;10.61;63.27;98535.76;223662;182;137604;-71
2023/03/23 01:26:32;;;;;;;13.20;8.40;;;;;;;10.58;63.51;98534.23;223705;181;146760;-71
2023/03/23 01:31:36;;;;;;;17.10;8.90;;;;;;;10.49;63.61;98536.23;223738;181;139698;-71
2023/03/23 01:36:40;;;;;;;;;;;;;;;10.43;63.81;98532.95;223570;181;137707;-72
2023/03/23 01:41:43;;;;;;;13.30;8.40;;;;;;;10.36;63.98;98527.77;223758;182;147305;-70
2023/03/23 01:46:47;;;;;;;15.50;8.90;;;;;;;10.28;64.24;98531.14;223674;182;138749;-71
2023/03/23 01:52:08;;;;;;;19.10;10.10;;;;;;;10.21;64.51;98532.85;223632;182;137095;-70
2023/03/23 01:57:15;;;;;;;15.90;10.00;;;;;;;10.17;64.60;98534.73;223710;182;148576;-71
2023/03/23 02:02:21;;;;;;;23.50;10.10;;;;;;;10.12;64.96;98534.48;223733;182;138645;-70
2023/03/23 02:07:24;;;;;;;22.60;10.50;;;;;;;10.11;65.20;98530.66;222307;182;137467;-72
2023/03/23 02:12:27;;;;;;;22.70;10.30;;;;;;;10.20;65.43;98530.09;223307;182;147781;-71
2023/03/23 02:17:38;;;;;;;20.00;11.10;;;;;;;10.30;65.51;98533.70;223650;182;138349;-71
2023/03/23 02:22:55;;;;;;;18.70;10.50;;;;;;;10.36;65.59;98534.66;223751;181;137881;-71
2023/03/23 02:28:31;;;;;;;19.70;9.90;;;;;;;10.44;65.47;98531.14;223754;181;146760;-70
2023/03/23 02:33:39;;;;;;;14.50;9.20;;;;;;;10.70;64.87;98528.73;223485;182;139637;-71
2023/03/23 02:38:53;;;;;;;13.10;8.60;;;;;;;10.92;64.43;98526.46;223695;182;138084;-71
2023/03/23 02:43:57;;;;;;;12.10;8.00;;;;;;;11.03;63.85;98524.45;223621;181;148065;-71
2023/03/23 02:49:03;;;;;;;15.90;9.50;;;;;;;11.20;63.06;98522.33;223779;181;138717;-71
2023/03/23 02:54:07;;;;;;;12.50;7.70;;;;;;;11.41;62.31;98523.06;223696;181;137505;-72
2023/03/23 02:59:09;;;;;;;11.90;7.70;;;;;;;11.69;61.22;98518.55;223681;182;148434;-72
2023/03/23 03:04:18;;;;;;;13.30;7.90;;;;;;;11.94;60.35;98518.11;223655;181;138754;-71
2023/03/23 03:09:42;;;;;;;13.60;8.60;;;;;;;12.12;59.57;98507.12;223600;182;136929;-71
2023/03/23 03:14:59;;;;;;;15.00;8.90;;;;;;;12.22;58.97;98504.02;223689;181;146745;-72
2023/03/23 03:20:13;;;;;;;17.10;10.30;;;;;;;12.27;58.66;98497.91;223747;182;139272;-71
2023/03/23 03:25:16;;;;;;;18.50;10.80;;;;;;;12.34;58.30;98497.98;223656;182;139018;-71
2023/03/23 03:30:24;;;;;;;23.90;12.20;;;;;;;12.37;57.95;98498.59;223722;182;148505;-71
2023/03/23 03:35:30;;;;;;;19.70;12.10;;;;;;;12.40;57.73;98497.48;223710;182;138960;-71
2023/03/23 03:40:32;;;;;;;21.50;13.00;;;;;;;12.37;57.53;98495.75;223765;182;137150;-71
2023/03/23 03:45:36;;;;;;;20.20;11.70;;;;;;;12.32;57.57;98494.67;223714;181;147050;-72
2023/03/23 03:50:39;;;;;;;20.40;11.20;;;;;;;12.35;57.45;98493.61;223773;181;138587;-72
2023/03/23 03:55:45;;;;;;;35.50;25.90;;;;;;;12.32;57.53;98491.31;223780;181;138091;-71
2023/03/23 04:00:49;;;;;;;47.30;29.70;;;;;;;12.29;57.46;98494.91;223844;182;147356;-71
2023/03/23 04:05:59;;;;;;;;;;;;;;;12.30;57.32;98490.23;223169;181;138499;-72
2023/03/23 04:11:01;;;;;;;19.10;10.40;;;;;;;12.28;57.19;98483.64;223335;183;133023;-73
2023/03/23 04:16:06;;;;;;;11.50;7.50;;;;;;;12.30;57.31;98485.45;222706;182;147337;-72
2023/03/23 04:21:09;;;;;;;10.60;7.00;;;;;;;12.29;57.04;98489.45;223630;181;139920;-73
2023/03/23 04:26:12;;;;;;;20.70;10.50;;;;;;;12.30;56.92;98485.45;223684;182;137856;-73
2023/03/23 04:31:18;;;;;;;16.70;8.40;;;;;;;12.10;57.28;98486.98;223750;181;146419;-73
2023/03/23 04:36:23;;;;;;;12.90;7.80;;;;;;;12.07;57.39;98485.98;223630;181;138435;-73
2023/03/23 04:41:38;;;;;;;16.00;8.20;;;;;;;11.99;57.61;98485.50;223625;181;137132;-73
2023/03/23 04:47:09;;;;;;;19.80;8.30;;;;;;;11.85;58.04;98489.80;223001;182;147792;-71
2023/03/23 04:52:17;;;;;;;12.80;8.10;;;;;;;11.70;58.38;98496.63;223677;182;138931;-71
2023/03/23 04:57:28;;;;;;;18.10;8.50;;;;;;;11.66;58.86;98493.53;223682;182;137328;-71
2023/03/23 05:02:55;;;;;;;106.30;75.30;;;;;;;11.54;59.33;98496.70;223674;181;147629;-70
2023/03/23 05:08:01;;;;;;;19.30;11.10;;;;;;;11.53;59.56;98498.77;223641;181;138683;-70
2023/03/23 05:13:06;;;;;;;22.60;10.60;;;;;;;11.54;59.88;98502.07;223089;183;137524;-73
2023/03/23 05:18:10;;;;;;;21.10;9.20;;;;;;;11.55;59.75;98502.31;223630;182;147680;-71
2023/03/23 05:23:14;;;;;;;21.60;9.70;;;;;;;11.57;60.19;98504.82;223662;183;138949;-71
2023/03/23 05:28:18;;;;;;;20.00;9.90;;;;;;;11.57;60.23;98507.70;223773;181;136950;-72
2023/03/23 05:33:26;;;;;;;29.20;10.00;;;;;;;11.48;60.72;98503.59;223640;182;147258;-70
2023/03/23 05:38:52;;;;;;;31.70;11.90;;;;;;;11.36;61.01;98499.30;223591;182;138290;-71
2023/03/23 05:43:55;;;;;;;26.60;10.60;;;;;;;11.30;61.14;98500.98;223763;182;137157;-71
2023/03/23 05:49:15;;;;;;;44.20;14.20;;;;;;;11.42;61.06;98498.35;223768;181;149438;-71
2023/03/23 05:54:18;;;;;;;53.10;15.00;;;;;;;11.37;61.24;98503.87;223663;182;139672;-71
2023/03/23 05:59:21;;;;;;;51.10;15.10;;;;;;;11.30;62.05;98504.86;223665;181;137788;-71
2023/03/23 06:04:27;;;;;;;17.30;8.30;;;;;;;11.37;61.82;98508.59;223612;182;147901;-71
2023/03/23 06:09:49;;;;;;;17.40;7.80;;;;;;;11.69;60.70;98517.25;223595;181;138792;-70
2023/03/23 06:15:01;;;;;;;14.40;7.70;;;;;;;12.00;59.92;98506.27;223594;182;136955;-71
2023/03/23 06:20:24;;;;;;;35.80;12.10;;;;;;;12.29;59.88;98501.03;223677;181;147810;-71
2023/03/23 06:25:28;;;;;;;16.30;7.10;;;;;;;12.49;59.68;98497.52;223725;181;139888;-71
2023/03/23 06:30:35;;;;;;;18.40;7.50;;;;;;;12.72;58.42;98493.32;223720;182;138902;-71
2023/03/23 06:35:39;;;;;;;18.60;7.60;;;;;;;12.95;58.12;98493.46;223635;183;148258;-71
2023/03/23 06:40:55;;;;;;;17.70;7.40;;;;;;;13.15;57.80;98498.82;222177;182;139776;-73
2023/03/23 06:46:00;;;;;;;13.10;6.50;;;;;;;13.35;56.98;98491.85;223631;182;139844;-73
2023/03/23 06:51:18;;;;;;;13.90;6.80;;;;;;;13.58;56.46;98494.06;223745;181;147176;-73
2023/03/23 06:56:24;;;;;;;12.80;8.00;;;;;;;13.78;56.10;98489.84;223739;181;138717;-71
2023/03/23 07:01:28;;;;;;;15.60;8.40;;;;;;;13.96;55.48;98488.16;223725;182;142444;-73
2023/03/23 07:06:34;;;;;;;18.30;7.60;;;;;;;14.15;55.16;98492.26;223656;182;147325;-73
2023/03/23 07:11:37;;;;;;;15.60;7.90;;;;;;;14.27;54.91;98497.66;223600;182;138633;-73
2023/03/23 07:22:56;;;;;;;12.90;6.30;;;;;;;14.67;53.62;98489.91;223698;182;147206;-73
2023/03/23 07:28:14;;;;;;;13.20;6.20;;;;;;;14.86;53.16;98484.66;223625;182;139715;-73
2023/03/23 07:33:17;;;;;;;13.30;6.20;;;;;;;15.04;52.56;98485.96;223639;182;137795;-73
2023/03/23 07:38:19;;;;;;;11.40;6.20;;;;;;;15.18;52.16;98487.89;223586;181;147306;-70
2023/03/23 07:43:24;;;;;;;18.80;6.40;;;;;;;15.30;52.11;98481.42;223647;181;138698;-70
2023/03/23 07:55:06;;;;;;;10.70;4.80;;;;;;;15.70;51.47;98485.33;223722;182;147199;-71
2023/03/23 08:00:20;;;;;;;12.30;4.80;;;;;;;15.91;50.71;98488.60;223797;181;138571;-71
2023/03/23 08:05:26;;;;;;;12.20;4.70;;;;;;;16.10;49.76;98488.46;223751;182;138251;-70
2023/03/23 08:10:46;;;;;;;9.10;4.80;;;;;;;16.29;49.67;98483.25;223696;181;149602;-70
2023/03/23 08:16:13;;;;;;;7.60;3.60;;;;;;;16.45;48.50;98483.86;223739;182;138085;-71
2023/03/23 08:21:30;;;;;;;6.20;3.10;;;;;;;16.54;47.53;98485.11;223683;182;136684;-71
2023/03/23 08:27:08;;;;;;;6.80;3.00;;;;;;;16.60;46.61;98496.98;223606;181;147010;-71
2023/03/23 08:32:26;;;;;;;8.90;3.10;;;;;;;16.62;46.16;98501.27;223704;181;138664;-71
2023/03/23 08:37:58;;;;;;;4.70;2.70;;;;;;;16.61;45.66;98492.18;223772;183;140258;-71
2023/03/23 08:43:29;;;;;;;5.90;2.80;;;;;;;16.62;45.95;98495.45;223757;181;148085;-71
2023/03/23 08:48:50;;;;;;;4.60;3.10;;;;;;;16.66;45.45;98493.18;223687;181;139794;-71
2023/03/23 08:54:29;;;;;;;5.40;3.00;;;;;;;16.67;45.13;98491.98;223619;181;137194;-71
2023/03/23 09:00:17;;;;;;;6.70;2.60;;;;;;;16.71;45.18;98489.80;223551;181;147789;-71
2023/03/23 09:05:46;;;;;;;6.80;3.00;;;;;;;16.79;44.94;98491.38;223669;182;138462;-71
2023/03/23 09:11:09;;;;;;;4.90;2.50;;;;;;;16.85;44.87;98488.09;223704;181;136739;-72
2023/03/23 09:16:12;;;;;;;8.00;2.60;;;;;;;16.95;44.34;98494.46;223576;183;147608;-70
2023/03/23 09:21:14;;;;;;;5.30;2.80;;;;;;;17.02;43.66;98492.91;223637;182;140427;-71
2023/03/23 09:26:16;;;;;;;4.80;2.50;;;;;;;17.10;43.66;98493.04;223293;182;136898;-71
2023/03/23 09:31:22;;;;;;;5.40;2.90;;;;;;;17.21;43.42;98492.66;223779;183;147462;-71
2023/03/23 09:36:31;;;;;;;6.10;2.50;;;;;;;17.32;43.61;98487.61;223683;182;138558;-69
2023/03/23 09:41:54;;;;;;;5.20;2.50;;;;;;;17.45;43.54;98478.87;223688;181;137932;-74
2023/03/23 09:47:15;;;;;;;5.00;2.40;;;;;;;17.61;43.38;98476.64;223631;182;147438;-74
2023/03/23 09:52:19;;;;;;;7.10;2.90;;;;;;;17.72;42.08;98473.78;223554;182;138520;-73
2023/03/23 09:57:44;;;;;;;7.50;2.60;;;;;;;17.84;42.46;98467.56;223562;181;138113;-73
2023/03/23 10:03:00;;;;;;;;;;;;;;;18.00;41.10;98460.02;223709;182;147036;-74
2023/03/23 10:08:12;;;;;;;6.60;2.90;;;;;;;18.23;40.41;98455.16;223761;182;138417;-73
2023/03/23 10:13:33;;;;;;;12.60;2.90;;;;;;;18.36;40.07;98454.17;223758;181;137032;-74
2023/03/23 10:18:47;;;;;;;6.10;2.30;;;;;;;18.55;39.48;98450.42;222815;181;147691;-75
2023/03/23 10:23:59;;;;;;;7.90;2.50;;;;;;;18.72;39.54;98440.52;223628;182;138186;-75
2023/03/23 10:29:34;;;;;;;8.10;2.50;;;;;;;18.94;38.41;98435.52;223520;182;137217;-75
2023/03/23 10:34:57;;;;;;;5.50;2.40;;;;;;;19.00;38.57;98430.36;223654;182;146814;-73
2023/03/23 10:40:03;;;;;;;6.40;3.00;;;;;;;19.09;38.32;98427.10;223689;181;138851;-73
2023/03/23 10:45:18;;;;;;;6.50;3.10;;;;;;;19.35;36.84;98418.42;223649;181;136968;-74
2023/03/23 10:50:28;;;;;;;7.20;3.30;;;;;;;19.66;36.36;98412.70;223789;182;147913;-73
2023/03/23 10:55:39;;;;;;;6.10;2.80;;;;;;;19.90;34.97;98407.13;223711;181;138771;-76
2023/03/23 11:00:47;;;;;;;6.20;3.00;;;;;;;20.11;34.69;98401.46;223622;182;136919;-73
2023/03/23 11:05:59;;;;;;;5.00;2.90;;;;;;;20.21;33.94;98399.40;223805;182;148012;-74
2023/03/23 11:11:28;;;;;;;3.80;2.90;;;;;;;20.28;32.93;98396.83;220984;180;141416;-77
2023/03/23 11:16:33;;;;;;;7.30;3.40;;;;;;;20.37;31.96;98397.41;223638;182;137681;-74
2023/03/23 11:21:37;;;;;;;7.20;2.70;;;;;;;20.43;31.77;98387.15;223301;182;146400;-76
2023/03/23 11:26:44;;;;;;;6.50;3.00;;;;;;;20.49;32.19;98384.83;222656;181;138933;-74
2023/03/23 11:31:52;;;;;;;8.10;3.00;;;;;;;20.52;31.58;98389.96;223805;182;137214;-74
2023/03/23 11:37:01;;;;;;;4.40;2.80;;;;;;;20.53;31.37;98383.67;223789;182;147085;-74
2023/03/23 11:42:29;;;;;;;5.00;2.50;;;;;;;20.66;31.70;98367.09;223634;182;138170;-74
2023/03/23 11:47:40;;;;;;;4.60;2.60;;;;;;;20.88;31.28;98369.01;223676;182;137636;-74
2023/03/23 11:53:08;;;;;;;46.20;36.30;;;;;;;20.95;31.18;98363.94;223753;181;147153;-75
2023/03/23 11:58:14;;;;;;;5.20;2.70;;;;;;;20.81;31.30;98365.13;223642;181;140208;-75
2023/03/23 12:03:17;;;;;;;5.90;1.90;;;;;;;20.70;31.05;98368.93;223599;182;137088;-75
2023/03/23 12:08:47;;;;;;;10.20;2.30;;;;;;;20.49;31.22;98370.42;223669;181;148092;-74
2023/03/23 12:14:38;;;;;;;6.10;2.20;;;;;;;20.23;31.12;98377.91;223695;182;138285;-75
2023/03/23 12:19:53;;;;;;;3.90;2.40;;;;;;;20.03;31.92;98371.41;223248;184;137736;-75
2023/03/23 12:25:20;;;;;;;4.60;2.60;;;;;;;19.94;32.40;98370.65;223646;182;147330;-76
2023/03/23 12:30:28;;;;;;;6.20;2.40;;;;;;;19.90;32.58;98367.36;223769;182;139440;-75
2023/03/23 12:35:52;;;;;;;4.70;2.30;;;;;;;19.84;32.61;98363.64;222177;183;137032;-75
2023/03/23 12:41:01;;;;;;;5.40;2.30;;;;;;;19.77;32.89;98360.72;223732;181;146875;-75
2023/03/23 12:46:15;;;;;;;5.40;2.90;;;;;;;19.71;33.44;98367.70;223682;181;138516;-76
2023/03/23 12:51:23;;;;;;;5.80;2.50;;;;;;;19.66;33.60;98362.35;223666;181;137373;-73
2023/03/23 12:56:33;;;;;;;6.00;2.50;;;;;;;19.62;33.51;98358.22;223676;182;147099;-73
2023/03/23 13:01:42;;;;;;;5.40;3.00;;;;;;;19.59;33.80;98364.27;223740;181;138860;-74
2023/03/23 13:06:48;;;;;;;6.00;3.00;;;;;;;19.58;33.77;98366.58;223659;181;137257;-74
2023/03/23 13:11:54;;;;;;;7.90;2.80;;;;;;;19.60;34.47;98358.23;223414;182;147148;-76
2023/03/23 13:17:19;;;;;;;4.00;2.50;;;;;;;19.60;34.44;98363.23;223610;181;139205;-78
2023/03/23 13:22:43;;;;;;;6.70;3.00;;;;;;;19.56;34.36;98359.80;223764;181;137574;-75
2023/03/23 13:27:58;;;;;;;8.00;2.60;;;;;;;19.50;34.99;98361.13;223640;181;147647;-76
2023/03/23 13:33:06;;;;;;;5.50;2.40;;;;;;;19.45;34.95;98367.44;223740;181;141556;-76
2023/03/23 13:38:47;;;;;;;4.40;2.20;;;;;;;19.38;35.12;98369.30;223732;181;139478;-76
2023/03/23 13:43:49;;;;;;;5.30;2.00;;;;;;;19.27;35.26;98361.89;223682;182;148037;-76
2023/03/23 13:49:17;;;;;;;3.00;2.10;;;;;;;19.24;35.79;98357.54;223699;182;138710;-76
2023/03/23 13:54:32;;;;;;;6.30;1.90;;;;;;;19.20;35.93;98361.35;223706;181;139895;-76
2023/03/23 13:59:47;;;;;;;5.60;2.10;;;;;;;19.18;36.13;98354.97;222625;182;146797;-80
2023/03/23 14:04:50;;;;;;;5.40;2.20;;;;;;;19.17;36.26;98358.41;223738;181;139523;-72
2023/03/23 14:09:53;;;;;;;3.80;1.90;;;;;;;19.19;36.44;98359.87;223714;181;137560;-71
2023/03/23 14:15:04;;;;;;;3.10;1.70;;;;;;;19.19;36.33;98360.61;223552;181;147052;-74
2023/03/23 14:20:07;;;;;;;4.80;1.80;;;;;;;19.18;36.48;98361.02;223746;181;139489;-75
2023/03/23 14:25:18;;;;;;;4.60;1.90;;;;;;;19.18;36.55;98353.52;223712;182;137225;-74
2023/03/23 14:30:26;;;;;;;5.70;2.10;;;;;;;19.13;36.62;98347.52;223321;182;147585;-75
2023/03/23 14:35:31;;;;;;;2.70;1.80;;;;;;;19.10;36.43;98348.93;223593;182;138717;-73
2023/03/23 14:40:34;;;;;;;5.30;1.90;;;;;;;19.08;36.58;98338.54;223688;181;137091;-73
2023/03/23 14:45:36;;;;;;;4.50;2.20;;;;;;;19.11;36.86;98336.23;223730;181;148225;-73
2023/03/23 14:50:41;;;;;;;5.90;2.20;;;;;;;19.16;36.85;98335.15;222448;181;138527;-75
2023/03/23 14:55:47;;;;;;;8.00;2.30;;;;;;;19.23;36.94;98333.73;223769;181;138166;-75
2023/03/23 15:00:55;;;;;;;6.40;2.10;;;;;;;19.27;36.82;98328.74;223566;182;147457;-73
2023/03/23 15:06:02;;;;;;;6.30;2.10;;;;;;;19.28;36.87;98326.81;223653;181;138707;-73
2023/03/23 15:11:11;;;;;;;4.40;2.20;;;;;;;19.27;36.77;98336.30;223661;181;136394;-73
2023/03/23 15:16:19;;;;;;;5.20;2.20;;;;;;;19.29;36.83;98342.44;223593;181;146893;-73
2023/03/23 15:21:25;;;;;;;102.20;73.20;;;;;;;19.28;36.99;98346.30;223609;181;139846;-71
2023/03/23 15:26:29;;;;;;;10.90;3.60;;;;;;;19.27;37.07;98343.76;223698;181;138033;-73
2023/03/23 15:31:32;;;;;;;8.40;2.40;;;;;;;19.26;37.10;98345.60;223729;181;147113;-72
2023/03/23 15:36:35;;;;;;;3.80;2.20;;;;;;;19.27;37.13;98338.70;223665;182;138881;-72
2023/03/23 15:41:47;;;;;;;3.80;2.40;;;;;;;19.27;37.25;98337.62;223692;182;136788;-72
2023/03/23 15:46:52;;;;;;;6.50;2.70;;;;;;;19.28;37.19;98338.17;223727;181;147320;-72
2023/03/23 15:51:55;;;;;;;7.20;2.50;;;;;;;19.29;37.28;98336.48;223244;182;138465;-76
2023/03/23 15:56:57;;;;;;;10.50;3.10;;;;;;;19.28;37.42;98331.10;223402;181;136550;-73
2023/03/23 16:02:00;;;;;;;7.40;2.80;;;;;;;19.29;37.42;98330.67;223736;182;146974;-74
2023/03/23 16:07:05;;;;;;;7.90;2.70;;;;;;;19.28;37.52;98328.32;223550;183;140418;-73
2023/03/23 16:12:12;;;;;;;6.90;2.80;;;;;;;19.26;37.68;98333.59;223725;182;136980;-74
2023/03/23 16:17:18;;;;;;;9.00;3.40;;;;;;;19.24;37.58;98333.73;223583;182;146737;-73
2023/03/23 16:22:22;;;;;;;7.00;2.60;;;;;;;19.24;37.71;98338.70;223625;181;138893;-73
2023/03/23 16:27:25;;;;;;;10.30;2.80;;;;;;;19.21;37.75;98340.00;223551;181;137833;-73
2023/03/23 16:32:29;;;;;;;12.80;3.40;;;;;;;19.20;37.90;98339.43;223590;181;147638;-75
2023/03/23 16:37:33;;;;;;;6.60;2.90;;;;;;;19.21;38.00;98340.64;223607;182;138062;-72
2023/03/23 16:42:37;;;;;;;14.00;2.90;;;;;;;19.19;38.15;98336.86;223620;181;137028;-73
2023/03/23 16:47:41;;;;;;;10.30;3.40;;;;;;;19.19;38.12;98341.55;223645;182;149229;-72
2023/03/23 16:52:46;;;;;;;45.60;37.70;;;;;;;19.15;38.16;98338.89;223553;181;139393;-72
2023/03/23 16:57:51;;;;;;;14.80;8.50;;;;;;;19.12;38.97;98339.21;223480;182;137202;-71
2023/03/23 17:03:11;;;;;;;15.10;3.50;;;;;;;19.04;38.45;98338.94;223633;182;147788;-70
2023/03/23 17:08:15;;;;;;;9.10;3.70;;;;;;;19.00;38.29;98345.70;223731;181;138489;-70
2023/03/23 17:13:19;;;;;;;11.70;3.80;;;;;;;18.99;38.36;98349.08;223610;182;137106;-70
2023/03/23 17:18:23;;;;;;;11.60;4.00;;;;;;;18.96;38.29;98348.66;223663;181;147826;-70
2023/03/23 17:23:28;;;;;;;14.90;4.60;;;;;;;18.93;38.41;98356.71;223597;182;138263;-69
2023/03/23 17:28:31;;;;;;;10.20;3.90;;;;;;;18.82;38.90;98363.48;223679;182;137238;-71
2023/03/23 17:33:34;;;;;;;10.60;4.00;;;;;;;18.72;39.04;98368.13;223630;182;147948;-73
2023/03/23 17:38:38;;;;;;;58.30;39.20;;;;;;;18.59;39.50;98365.52;223631;182;138890;-72
2023/03/23 17:43:42;;;;;;;13.60;7.10;;;;;;;18.53;40.31;98366.89;223737;182;139581;-73
2023/03/23 17:48:45;;;;;;;9.40;4.90;;;;;;;18.50;39.86;98367.75;223632;181;147289;-72
2023/03/23 17:53:49;;;;;;;11.50;4.80;;;;;;;18.51;39.51;98370.92;223714;181;138359;-73
2023/03/23 17:58:59;;;;;;;11.60;4.80;;;;;;;18.50;39.78;98379.22;223615;181;136687;-73
2023/03/23 18:04:03;;;;;;;12.00;6.00;;;;;;;18.40;39.99;98386.45;223701;182;146882;-72
2023/03/23 18:09:07;;;;;;;264.90;205.50;;;;;;;18.41;39.93;98385.94;223609;181;139544;-69
2023/03/23 18:14:10;;;;;;;33.30;20.80;;;;;;;18.48;40.24;98394.05;223633;181;138191;-70
2023/03/23 18:19:14;;;;;;;12.80;6.10;;;;;;;18.52;39.95;98392.30;223609;181;148268;-70
2023/03/23 18:24:19;;;;;;;14.90;6.30;;;;;;;18.50;40.26;98387.36;221516;182;140611;-70
2023/03/23 18:29:23;;;;;;;25.90;6.10;;;;;;;18.34;41.86;98385.23;223630;182;137443;-71
2023/03/23 18:34:26;;;;;;;15.20;6.50;;;;;;;18.07;42.63;98391.84;223629;182;146923;-70
2023/03/23 18:39:32;;;;;;;22.30;8.80;;;;;;;17.84;42.86;98396.38;223664;181;138413;-71
2023/03/23 18:44:36;;;;;;;17.90;7.80;;;;;;;17.66;43.70;98409.23;223712;181;138200;-72
2023/03/23 18:49:40;;;;;;;54.50;28.90;;;;;;;17.50;44.37;98427.36;223711;182;147549;-70
2023/03/23 18:54:44;;;;;;;21.00;8.20;;;;;;;17.37;44.87;98423.30;223617;177;140626;-70
2023/03/23 18:59:48;;;;;;;28.90;8.40;;;;;;;17.30;44.88;98426.55;223605;181;138042;-71
2023/03/23 19:04:51;;;;;;;25.50;8.00;;;;;;;17.25;44.94;98427.59;223585;182;147788;-71
2023/03/23 19:09:56;;;;;;;19.50;8.00;;;;;;;17.30;44.44;98429.37;223714;181;138819;-71
2023/03/23 19:15:00;;;;;;;19.90;8.40;;;;;;;17.41;44.02;98430.45;223716;182;136885;-71
2023/03/23 19:20:08;;;;;;;18.60;7.90;;;;;;;17.50;43.73;98431.84;223815;182;147072;-71
2023/03/23 19:25:28;;;;;;;19.60;9.10;;;;;;;17.54;43.79;98437.23;223730;181;139458;-70
2023/03/23 19:30:32;;;;;;;19.40;9.10;;;;;;;17.61;42.81;98437.73;223717;182;137738;-71
2023/03/23 19:35:36;;;;;;;22.10;9.50;;;;;;;17.70;42.31;98437.06;223717;181;147484;-70
2023/03/23 19:40:50;;;;;;;19.80;9.30;;;;;;;17.76;42.21;98432.34;223688;182;139822;-70
2023/03/23 19:45:54;;;;;;;19.00;10.30;;;;;;;17.80;41.69;98428.21;223657;182;140487;-70
2023/03/23 19:50:57;;;;;;;17.40;9.70;;;;;;;17.80;41.55;98423.31;223645;181;148000;-71
2023/03/23 19:56:02;;;;;;;21.70;10.00;;;;;;;17.80;41.11;98421.90;223764;179;139111;-71
2023/03/23 20:01:07;;;;;;;20.70;10.70;;;;;;;17.77;40.73;98428.10;223673;181;138050;-71
2023/03/23 20:06:14;;;;;;;20.20;9.80;;;;;;;17.74;40.67;98420.15;223654;182;148045;-71
2023/03/23 20:11:18;;;;;;;20.60;10.60;;;;;;;17.71;40.37;98422.14;223556;182;139803;-73
2023/03/23 20:16:24;;;;;;;22.10;11.20;;;;;;;17.70;40.24;98429.69;223734;182;137005;-73
2023/03/23 20:21:28;;;;;;;18.30;10.00;;;;;;;17.66;40.25;98430.98;223683;181;147957;-73
2023/03/23 20:26:37;;;;;;;17.30;9.70;;;;;;;17.64;40.02;98433.88;223731;179;138722;-73
2023/03/23 20:31:41;;;;;;;18.60;10.40;;;;;;;17.62;40.07;98433.72;223760;181;136769;-72
2023/03/23 20:36:45;;;;;;;19.60;10.40;;;;;;;17.58;40.20;98440.92;223740;181;148139;-72
2023/03/23 20:41:53;;;;;;;20.40;10.00;;;;;;;17.56;40.07;98443.64;223598;182;138794;-72
2023/03/23 20:46:57;;;;;;;15.90;9.00;;;;;;;17.54;40.05;98448.36;223719;182;137598;-74
2023/03/23 20:52:01;;;;;;;17.40;9.40;;;;;;;17.53;40.08;98459.07;223804;181;147654;-72
2023/03/23 20:57:05;;;;;;;16.10;8.90;;;;;;;17.51;40.19;98461.52;223679;182;138656;-73
2023/03/23 21:02:14;;;;;;;16.10;8.50;;;;;;;17.50;40.18;98468.08;223744;181;138162;-72
2023/03/23 21:07:21;;;;;;;14.00;8.30;;;;;;;17.50;40.24;98468.92;223695;181;147345;-73
2023/03/23 21:12:26;;;;;;;15.70;8.50;;;;;;;17.50;40.32;98471.87;223619;181;138676;-72
2023/03/23 21:17:29;;;;;;;15.30;8.40;;;;;;;17.52;40.54;98478.16;223683;183;137896;-73
2023/03/23 21:22:34;;;;;;;14.70;8.30;;;;;;;17.52;40.52;98478.46;223638;182;147206;-74
2023/03/23 21:27:38;;;;;;;17.20;9.10;;;;;;;17.51;40.71;98474.06;223663;181;138032;-71
2023/03/23 21:32:41;;;;;;;16.00;7.90;;;;;;;17.52;40.93;98470.20;223672;181;141166;-71
2023/03/23 21:37:47;;;;;;;15.50;8.00;;;;;;;17.52;40.99;98456.77;223774;181;148303;-69
2023/03/23 21:42:52;;;;;;;13.40;8.10;;;;;;;17.51;41.09;98445.27;223647;181;139142;-70
2023/03/23 21:47:56;;;;;;;13.50;8.10;;;;;;;17.45;41.25;98444.78;223722;182;137216;-70
2023/03/23 21:53:01;;;;;;;21.10;9.70;;;;;;;17.40;41.76;98450.30;223636;181;148115;-69
2023/03/23 21:58:05;;;;;;;19.00;9.00;;;;;;;17.22;43.47;98459.36;223579;181;138920;-69
2023/03/23 22:03:08;;;;;;;16.50;9.80;;;;;;;16.99;44.04;98454.30;223724;181;137154;-69
2023/03/23 22:08:12;;;;;;;18.90;9.10;;;;;;;16.86;43.95;98456.88;223672;181;148730;-69
2023/03/23 22:13:17;;;;;;;17.70;10.20;;;;;;;16.88;43.48;98455.55;223622;180;139088;-71
2023/03/23 22:18:20;;;;;;;27.20;10.30;;;;;;;16.91;43.93;98462.27;223655;182;138129;-71
2023/03/23 22:23:24;;;;;;;17.50;9.90;;;;;;;16.76;45.58;98468.72;223654;182;147448;-72
2023/03/23 22:28:29;;;;;;;16.40;9.80;;;;;;;16.60;45.99;98476.72;223661;182;138592;-72
2023/03/23 22:33:35;;;;;;;22.30;13.50;;;;;;;16.55;45.36;98476.28;223703;181;137204;-71
2023/03/23 22:38:41;;;;;;;25.20;14.80;;;;;;;16.65;44.88;98476.27;223721;181;146844;-72
2023/03/23 22:43:46;;;;;;;23.30;15.30;;;;;;;16.71;44.79;98473.14;223728;181;138312;-72
2023/03/23 22:48:49;;;;;;;24.50;14.70;;;;;;;16.70;44.84;98478.94;223530;181;137009;-73
2023/03/23 22:53:52;;;;;;;20.90;13.00;;;;;;;16.70;44.86;98477.49;223745;181;147618;-72
2023/03/23 22:58:59;;;;;;;;;;;;;;;16.74;44.64;98481.80;223654;182;138043;-72
2023/03/23 23:04:05;;;;;;;18.60;13.40;;;;;;;16.74;44.79;98485.58;223752;182;130935;-72
2023/03/23 23:09:09;;;;;;;20.70;12.80;;;;;;;16.71;44.87;98487.64;223612;181;147403;-72
2023/03/23 23:14:12;;;;;;;20.70;13.90;;;;;;;16.73;44.84;98482.40;223295;182;138780;-73
2023/03/23 23:19:24;;;;;;;21.80;13.20;;;;;;;16.74;44.94;98480.01;223660;181;137402;-74
2023/03/23 23:24:28;;;;;;;18.10;12.50;;;;;;;16.76;44.88;98478.17;223656;182;147578;-75
2023/03/23 23:29:31;;;;;;;19.00;12.00;;;;;;;16.82;44.76;98476.04;223647;182;138408;-74
2023/03/23 23:34:35;;;;;;;23.40;11.80;;;;;;;16.84;44.84;98474.13;223607;183;137772;-75
2023/03/23 23:39:40;;;;;;;18.40;11.30;;;;;;;16.84;44.83;98472.11;223618;181;147878;-75
2023/03/23 23:44:45;;;;;;;16.00;10.10;;;;;;;16.83;44.92;98471.88;223631;181;139225;-73
2023/03/23 23:49:49;;;;;;;17.20;10.30;;;;;;;16.87;44.88;98469.53;223681;181;137894;-71
2023/03/23 23:54:53;;;;;;;17.30;9.90;;;;;;;16.90;44.74;98470.45;223674;182;147081;-71